Chuck Boone — WDC6232 — position and weather

sailwx.info

Track history (hours):
 
Tides and Currents Weather Stations Pressure Air Temp Water Temp Dewpoint Dewpoint Depression Visibility Wind Speed Wind Dir Waves Ship Positions

Chuck Boone

Owner: BOONE TOWING,INC., Channelview, TX. More information available from US FCC via Universal Licensing System and Coast Guard Vessel Documentation Center.

Last reported at 2017-Oct-19 23:03 UTC. Time now 2017-Oct-19 23:35 UTC.
Position N 29°46' W 095°06'.

Length 22 m.

Type: Towing. MMSI: 366053260.

Date/timePositionNaut miles runAvg speedWind from/ knotsBaromVisibWave heightAir tempDewpointWater temp
2017-Oct-19 23:03N 29°46' W 095°06'0 5.0
2017-Oct-19 23:00N 29°46' W 095°06'3 5.1
2017-Oct-19 22:30N 29°44' W 095°08'2 2.7
2017-Oct-19 21:44N 29°45' W 095°10'1 5.8
2017-Oct-19 21:30N 29°44' W 095°09'3 1.4
2017-Oct-19 19:02N 29°46' W 095°06'0 6.0
2017-Oct-19 19:00N 29°46' W 095°06'0 0.6
2017-Oct-19 18:26N 29°47' W 095°06'0 0.0
2017-Oct-19 17:04N 29°47' W 095°06'0 0.3
2017-Oct-19 16:59N 29°47' W 095°06'0 0.1
2017-Oct-19 15:48N 29°46' W 095°06'0 0.0
2017-Oct-19 13:46N 29°47' W 095°06'0 0.0
2017-Oct-19 11:06N 29°47' W 095°06'0 2.9
2017-Oct-19 10:59N 29°46' W 095°06'0 0.0
2017-Oct-19 09:55N 29°46' W 095°06'0 0.1
2017-Oct-19 09:06N 29°46' W 095°06'0 0.1
2017-Oct-19 08:48N 29°46' W 095°06'0 0.1
2017-Oct-19 07:45N 29°46' W 095°06'0 0.0
2017-Oct-19 07:28N 29°46' W 095°06'0 0.1
2017-Oct-19 06:01N 29°46' W 095°06'0 5.6
2017-Oct-19 06:00N 29°46' W 095°06'0 0.4
2017-Oct-19 05:07N 29°47' W 095°06'0 1.2
2017-Oct-19 04:43N 29°46' W 095°06'0 0.1
2017-Oct-19 04:15N 29°46' W 095°06'1 2.0
2017-Oct-19 03:54N 29°47' W 095°06'0 0.3
2017-Oct-19 02:43N 29°46' W 095°06'0 0.1
2017-Oct-19 01:56N 29°47' W 095°06'0 0.4
2017-Oct-19 01:23N 29°46' W 095°06'0 0.0
2017-Oct-18 22:54N 29°46' W 095°06'0 0.3
2017-Oct-18 21:32N 29°47' W 095°06'0 1.4
2017-Oct-18 21:20N 29°47' W 095°06'0 0.3
2017-Oct-18 20:22N 29°46' W 095°06'0 0.0
2017-Oct-18 19:37N 29°46' W 095°06'0 0.1
2017-Oct-18 19:29N 29°46' W 095°06'0 0.1
2017-Oct-18 18:47N 29°46' W 095°06'0 0.2
2017-Oct-18 17:08N 29°46' W 095°06'0 0.7
2017-Oct-18 16:39N 29°46' W 095°06'1 0.7
2017-Oct-18 15:36N 29°47' W 095°06'0 1.7
2017-Oct-18 15:26N 29°47' W 095°06'0 0.0
2017-Oct-18 13:56N 29°47' W 095°06'0 0.4
2017-Oct-18 13:21N 29°46' W 095°06'0 0.1
2017-Oct-18 12:59N 29°46' W 095°06'1 1.2
2017-Oct-18 12:30N 29°47' W 095°06'0 0.3
2017-Oct-18 12:00N 29°47' W 095°06'0 0.0
2017-Oct-18 10:18N 29°47' W 095°06'0 0.1
2017-Oct-18 10:00N 29°47' W 095°06'0 0.2
2017-Oct-18 08:25N 29°46' W 095°06'1 1.3
2017-Oct-18 07:58N 29°47' W 095°06'0 0.0
2017-Oct-18 07:27N 29°47' W 095°06'0 0.0
2017-Oct-18 06:58N 29°47' W 095°06'0 0.0
2017-Oct-18 06:30N 29°47' W 095°06'0 0.1
2017-Oct-18 05:48N 29°47' W 095°06'0 0.1
2017-Oct-18 05:29N 29°47' W 095°06'1 1.3
2017-Oct-18 05:00N 29°46' W 095°06'1 1.4
2017-Oct-18 04:30N 29°47' W 095°06'0 0.0
2017-Oct-18 04:00N 29°47' W 095°06'0 0.1
2017-Oct-18 03:28N 29°47' W 095°06'1 1.4
2017-Oct-18 03:00N 29°46' W 095°06'0 0.3
2017-Oct-18 02:04N 29°46' W 095°06'0 1.3
2017-Oct-18 01:58N 29°47' W 095°06'0 0.7
2017-Oct-18 01:28N 29°46' W 095°06'1 0.5
2017-Oct-17 23:39N 29°47' W 095°06'1 4.4
2017-Oct-17 23:27N 29°46' W 095°06'0 0.0
2017-Oct-17 14:50N 29°47' W 095°06'0 0.5
2017-Oct-17 14:14N 29°46' W 095°06'0 0.0
2017-Oct-17 11:31N 29°46' W 095°06'0 1.9
2017-Oct-17 11:30N 29°46' W 095°06'0 0.0
2017-Oct-17 07:03N 29°46' W 095°06'1 6.0
2017-Oct-17 06:57N 29°47' W 095°06'0 0.1
2017-Oct-17 06:30N 29°47' W 095°06'0 0.1
2017-Oct-17 06:00N 29°47' W 095°06'0 0.0
2017-Oct-17 05:30N 29°47' W 095°06'0 0.1
2017-Oct-17 05:00N 29°47' W 095°06'0 0.0
2017-Oct-17 03:08N 29°47' W 095°06'0 3.3
2017-Oct-17 03:00N 29°46' W 095°06'0 0.5
2017-Oct-17 02:29N 29°46' W 095°06'0 0.0
2017-Oct-17 01:49N 29°46' W 095°06'0 0.0
2017-Oct-16 23:33N 29°46' W 095°06'0 0.1
2017-Oct-16 21:43N 29°46' W 095°06'0 0.3
2017-Oct-16 21:12N 29°46' W 095°06'0 0.0
2017-Oct-16 20:43N 29°46' W 095°06'0 0.0
2017-Oct-16 20:22N 29°46' W 095°06'0 0.0
2017-Oct-16 17:10N 29°46' W 095°06'0 0.1
2017-Oct-16 12:52N 29°47' W 095°06'0 0.6
2017-Oct-16 12:26N 29°47' W 095°06'0 0.0
2017-Oct-16 08:36N 29°47' W 095°06'0 0.0
2017-Oct-16 08:30N 29°47' W 095°06'0 0.0
2017-Oct-16 08:00N 29°47' W 095°06'0 0.0
2017-Oct-16 07:28N 29°47' W 095°06'0 0.0
2017-Oct-16 05:34N 29°47' W 095°06'0 0.0
2017-Oct-16 05:30N 29°47' W 095°06'0 0.0
2017-Oct-16 04:57N 29°47' W 095°06'0 0.0
2017-Oct-16 04:30N 29°47' W 095°06'0 0.0
2017-Oct-15 22:42N 29°47' W 095°06'0 1.2
2017-Oct-15 22:30N 29°46' W 095°06'0 0.3
2017-Oct-15 21:50N 29°46' W 095°06'0 0.2
2017-Oct-15 20:05N 29°47' W 095°06'0 0.8
2017-Oct-15 19:37N 29°46' W 095°06'0 0.1
2017-Oct-15 19:30N 29°46' W 095°06'0 0.2
2017-Oct-15 18:39N 29°46' W 095°06'0 0.3
2017-Oct-15 18:11N 29°46' W 095°06'0 0.1
2017-Oct-15 17:50N 29°46' W 095°06'0 0.1
2017-Oct-15 17:21N 29°46' W 095°06'0 0.2
2017-Oct-15 16:12N 29°46' W 095°06'0 0.2
2017-Oct-15 13:56N 29°46' W 095°06'0 0.1
2017-Oct-15 13:01N 29°46' W 095°06'0 0.1
2017-Oct-15 08:33N 29°46' W 095°06'0 2.0
2017-Oct-15 08:24N 29°46' W 095°06'0 0.1
2017-Oct-15 07:51N 29°46' W 095°06'0 0.1
2017-Oct-15 07:06N 29°46' W 095°06'0 0.2
2017-Oct-15 06:56N 29°46' W 095°06'0 0.2
2017-Oct-15 06:27N 29°46' W 095°06'0 0.2
2017-Oct-15 05:59N 29°46' W 095°06'0 0.4
2017-Oct-15 05:03N 29°47' W 095°06'0 0.1
2017-Oct-15 01:45N 29°46' W 095°06'0 0.2
2017-Oct-15 01:17N 29°46' W 095°06'0 0.2
2017-Oct-14 23:21N 29°47' W 095°06'0 0.5
2017-Oct-14 22:37N 29°46' W 095°06'0 3.6
2017-Oct-14 22:30N 29°47' W 095°06'0 0.1
2017-Oct-14 21:39N 29°47' W 095°06'0 0.5
2017-Oct-14 21:08N 29°47' W 095°06'0 0.6
2017-Oct-14 20:36N 29°46' W 095°06'0 0.2
2017-Oct-14 20:30N 29°46' W 095°06'0 0.1
2017-Oct-14 19:23N 29°46' W 095°06'0 0.0
2017-Oct-14 18:00N 29°46' W 095°06'0 0.0
2017-Oct-14 17:23N 29°46' W 095°06'0 0.4
2017-Oct-14 16:22N 29°47' W 095°06'0 0.1
2017-Oct-14 13:42N 29°47' W 095°06'0 0.6
2017-Oct-14 13:21N 29°47' W 095°06'0 1.1
2017-Oct-14 12:59N 29°46' W 095°06'0 0.2
2017-Oct-14 11:18N 29°47' W 095°06'1 0.3
2017-Oct-14 09:38N 29°47' W 095°06'0 0.1
2017-Oct-14 09:30N 29°47' W 095°06'1 1.7
2017-Oct-14 09:00N 29°46' W 095°06'0 0.0
2017-Oct-14 05:10N 29°46' W 095°06'0 1.4
2017-Oct-14 05:00N 29°46' W 095°06'0 0.2
2017-Oct-14 03:25N 29°46' W 095°06'0 0.2
2017-Oct-14 02:40N 29°47' W 095°06'0 1.2
2017-Oct-14 02:23N 29°46' W 095°06'0 0.0
2017-Oct-13 23:20N 29°46' W 095°06'0 0.4
2017-Oct-13 22:18N 29°47' W 095°06'0 0.0
2017-Oct-13 22:00N 29°47' W 095°06'0 0.2
2017-Oct-13 21:23N 29°47' W 095°06'0 0.3
2017-Oct-13 20:21N 29°46' W 095°06'0 0.1
2017-Oct-13 19:47N 29°46' W 095°06'0 0.1
2017-Oct-13 19:26N 29°46' W 095°06'0 0.6
2017-Oct-13 18:51N 29°47' W 095°06'0 0.0
2017-Oct-13 13:58N 29°47' W 095°06'0 0.0
2017-Oct-13 08:39N 29°46' W 095°06'0 0.7
2017-Oct-13 08:30N 29°46' W 095°06'0 0.1
2017-Oct-13 07:57N 29°46' W 095°06'1 0.3
2017-Oct-13 05:50N 29°47' W 095°06'1 1.2
2017-Oct-13 05:24N 29°46' W 095°06'0 0.1
2017-Oct-13 04:26N 29°46' W 095°06'0 0.1
2017-Oct-13 03:31N 29°46' W 095°06'0 0.0
2017-Oct-13 03:19N 29°46' W 095°06'0 0.1
2017-Oct-13 02:56N 29°46' W 095°06'0 0.5
2017-Oct-13 02:27N 29°47' W 095°06'0 0.1
2017-Oct-12 21:17N 29°46' W 095°06'0 1.1
2017-Oct-12 20:59N 29°47' W 095°06'0 0.3
2017-Oct-12 19:42N 29°46' W 095°06'0 0.1
2017-Oct-12 13:43N 29°47' W 095°06'0 0.1
2017-Oct-12 11:43N 29°47' W 095°06'0 0.4
2017-Oct-12 11:09N 29°47' W 095°06'0 0.1
2017-Oct-12 07:55N 29°46' W 095°06'0 0.1
2017-Oct-12 06:40N 29°46' W 095°06'0 1.0
2017-Oct-12 06:27N 29°46' W 095°06'0 0.1
2017-Oct-12 06:00N 29°46' W 095°06'0 0.3
2017-Oct-12 04:37N 29°47' W 095°06'0 0.1
2017-Oct-12 04:28N 29°47' W 095°06'1 1.3
2017-Oct-12 04:00N 29°46' W 095°06'0 0.0
2017-Oct-12 03:23N 29°46' W 095°06'1 1.2
2017-Oct-12 02:55N 29°47' W 095°06'0 0.8
2017-Oct-12 02:18N 29°46' W 095°06'0 0.0
2017-Oct-12 00:55N 29°46' W 095°06'0 0.2
2017-Oct-12 00:21N 29°46' W 095°06'0 0.3
2017-Oct-12 00:00N 29°46' W 095°06'2 3.8
2017-Oct-11 23:29N 29°44' W 095°07'3 5.5
2017-Oct-11 22:59N 29°45' W 095°10'3 5.4
2017-Oct-11 22:27N 29°44' W 095°07'2 2.8
2017-Oct-11 21:42N 29°47' W 095°06'1 1.7
2017-Oct-11 21:23N 29°47' W 095°06'1 0.4
2017-Oct-11 20:06N 29°46' W 095°06'0 0.0
2017-Oct-11 19:13N 29°46' W 095°06'0 0.1
2017-Oct-11 17:37N 29°47' W 095°06'0 0.0
2017-Oct-10 22:40N 29°47' W 095°06'0 0.1
2017-Oct-10 22:01N 29°46' W 095°06'0 5.7
2017-Oct-10 22:00N 29°46' W 095°06'0 0.2
2017-Oct-10 21:30N 29°46' W 095°06'0 0.5
2017-Oct-10 21:00N 29°47' W 095°06'0 0.4
2017-Oct-10 20:25N 29°46' W 095°06'0 0.2
2017-Oct-10 19:31N 29°46' W 095°06'0 0.3
2017-Oct-10 18:45N 29°47' W 095°06'0 0.6
2017-Oct-10 18:14N 29°46' W 095°06'0 0.0
2017-Oct-10 17:46N 29°46' W 095°06'0 0.0
2017-Oct-10 16:24N 29°46' W 095°06'0 0.0
2017-Oct-10 10:01N 29°46' W 095°06'0 0.9
2017-Oct-10 10:00N 29°46' W 095°06'0 0.0
2017-Oct-10 05:26N 29°46' W 095°06'0 0.5
2017-Oct-10 05:00N 29°47' W 095°06'0 0.0
2017-Oct-10 01:53N 29°47' W 095°06'0 0.1
2017-Oct-09 23:44N 29°46' W 095°06'0 0.1
2017-Oct-09 23:27N 29°46' W 095°06'  
Track history (hours):
 
Tides and Currents Weather Stations Pressure Air Temp Water Temp Dewpoint Dewpoint Depression Visibility Wind Speed Wind Dir Waves Ship Positions

Chuck Boone

Owner: BOONE TOWING,INC., Channelview, TX. More information available from US FCC via Universal Licensing System and Coast Guard Vessel Documentation Center.

Last reported at 2017-Oct-19 23:03 UTC. Time now 2017-Oct-19 23:35 UTC.
Position N 29°46' W 095°06'.

Length 22 m.

Type: Towing. MMSI: 366053260.

Date/timePositionNaut miles runAvg speedWind from/ knotsBaromVisibWave heightAir tempDewpointWater temp
2017-Oct-19 23:03N 29°46' W 095°06'0 5.0
2017-Oct-19 23:00N 29°46' W 095°06'3 5.1
2017-Oct-19 22:30N 29°44' W 095°08'2 2.7
2017-Oct-19 21:44N 29°45' W 095°10'1 5.8
2017-Oct-19 21:30N 29°44' W 095°09'3 1.4
2017-Oct-19 19:02N 29°46' W 095°06'0 6.0
2017-Oct-19 19:00N 29°46' W 095°06'0 0.6
2017-Oct-19 18:26N 29°47' W 095°06'0 0.0
2017-Oct-19 17:04N 29°47' W 095°06'0 0.3
2017-Oct-19 16:59N 29°47' W 095°06'0 0.1
2017-Oct-19 15:48N 29°46' W 095°06'0 0.0
2017-Oct-19 13:46N 29°47' W 095°06'0 0.0
2017-Oct-19 11:06N 29°47' W 095°06'0 2.9
2017-Oct-19 10:59N 29°46' W 095°06'0 0.0
2017-Oct-19 09:55N 29°46' W 095°06'0 0.1
2017-Oct-19 09:06N 29°46' W 095°06'0 0.1
2017-Oct-19 08:48N 29°46' W 095°06'0 0.1
2017-Oct-19 07:45N 29°46' W 095°06'0 0.0
2017-Oct-19 07:28N 29°46' W 095°06'0 0.1
2017-Oct-19 06:01N 29°46' W 095°06'0 5.6
2017-Oct-19 06:00N 29°46' W 095°06'0 0.4
2017-Oct-19 05:07N 29°47' W 095°06'0 1.2
2017-Oct-19 04:43N 29°46' W 095°06'0 0.1
2017-Oct-19 04:15N 29°46' W 095°06'1 2.0
2017-Oct-19 03:54N 29°47' W 095°06'0 0.3
2017-Oct-19 02:43N 29°46' W 095°06'0 0.1
2017-Oct-19 01:56N 29°47' W 095°06'0 0.4
2017-Oct-19 01:23N 29°46' W 095°06'0 0.0
2017-Oct-18 22:54N 29°46' W 095°06'0 0.3
2017-Oct-18 21:32N 29°47' W 095°06'0 1.4
2017-Oct-18 21:20N 29°47' W 095°06'0 0.3
2017-Oct-18 20:22N 29°46' W 095°06'0 0.0
2017-Oct-18 19:37N 29°46' W 095°06'0 0.1
2017-Oct-18 19:29N 29°46' W 095°06'0 0.1
2017-Oct-18 18:47N 29°46' W 095°06'0 0.2
2017-Oct-18 17:08N 29°46' W 095°06'0 0.7
2017-Oct-18 16:39N 29°46' W 095°06'1 0.7
2017-Oct-18 15:36N 29°47' W 095°06'0 1.7
2017-Oct-18 15:26N 29°47' W 095°06'0 0.0
2017-Oct-18 13:56N 29°47' W 095°06'0 0.4
2017-Oct-18 13:21N 29°46' W 095°06'0 0.1
2017-Oct-18 12:59N 29°46' W 095°06'1 1.2
2017-Oct-18 12:30N 29°47' W 095°06'0 0.3
2017-Oct-18 12:00N 29°47' W 095°06'0 0.0
2017-Oct-18 10:18N 29°47' W 095°06'0 0.1
2017-Oct-18 10:00N 29°47' W 095°06'0 0.2
2017-Oct-18 08:25N 29°46' W 095°06'1 1.3
2017-Oct-18 07:58N 29°47' W 095°06'0 0.0
2017-Oct-18 07:27N 29°47' W 095°06'0 0.0
2017-Oct-18 06:58N 29°47' W 095°06'0 0.0
2017-Oct-18 06:30N 29°47' W 095°06'0 0.1
2017-Oct-18 05:48N 29°47' W 095°06'0 0.1
2017-Oct-18 05:29N 29°47' W 095°06'1 1.3
2017-Oct-18 05:00N 29°46' W 095°06'1 1.4
2017-Oct-18 04:30N 29°47' W 095°06'0 0.0
2017-Oct-18 04:00N 29°47' W 095°06'0 0.1
2017-Oct-18 03:28N 29°47' W 095°06'1 1.4
2017-Oct-18 03:00N 29°46' W 095°06'0 0.3
2017-Oct-18 02:04N 29°46' W 095°06'0 1.3
2017-Oct-18 01:58N 29°47' W 095°06'0 0.7
2017-Oct-18 01:28N 29°46' W 095°06'1 0.5
2017-Oct-17 23:39N 29°47' W 095°06'1 4.4
2017-Oct-17 23:27N 29°46' W 095°06'0 0.0
2017-Oct-17 14:50N 29°47' W 095°06'0 0.5
2017-Oct-17 14:14N 29°46' W 095°06'0 0.0
2017-Oct-17 11:31N 29°46' W 095°06'0 1.9
2017-Oct-17 11:30N 29°46' W 095°06'0 0.0
2017-Oct-17 07:03N 29°46' W 095°06'1 6.0
2017-Oct-17 06:57N 29°47' W 095°06'0 0.1
2017-Oct-17 06:30N 29°47' W 095°06'0 0.1
2017-Oct-17 06:00N 29°47' W 095°06'0 0.0
2017-Oct-17 05:30N 29°47' W 095°06'0 0.1
2017-Oct-17 05:00N 29°47' W 095°06'0 0.0
2017-Oct-17 03:08N 29°47' W 095°06'0 3.3
2017-Oct-17 03:00N 29°46' W 095°06'0 0.5
2017-Oct-17 02:29N 29°46' W 095°06'0 0.0
2017-Oct-17 01:49N 29°46' W 095°06'0 0.0
2017-Oct-16 23:33N 29°46' W 095°06'0 0.1
2017-Oct-16 21:43N 29°46' W 095°06'0 0.3
2017-Oct-16 21:12N 29°46' W 095°06'0 0.0
2017-Oct-16 20:43N 29°46' W 095°06'0 0.0
2017-Oct-16 20:22N 29°46' W 095°06'0 0.0
2017-Oct-16 17:10N 29°46' W 095°06'0 0.1
2017-Oct-16 12:52N 29°47' W 095°06'0 0.6
2017-Oct-16 12:26N 29°47' W 095°06'0 0.0
2017-Oct-16 08:36N 29°47' W 095°06'0 0.0
2017-Oct-16 08:30N 29°47' W 095°06'0 0.0
2017-Oct-16 08:00N 29°47' W 095°06'0 0.0
2017-Oct-16 07:28N 29°47' W 095°06'0 0.0
2017-Oct-16 05:34N 29°47' W 095°06'0 0.0
2017-Oct-16 05:30N 29°47' W 095°06'0 0.0
2017-Oct-16 04:57N 29°47' W 095°06'0 0.0
2017-Oct-16 04:30N 29°47' W 095°06'0 0.0
2017-Oct-15 22:42N 29°47' W 095°06'0 1.2
2017-Oct-15 22:30N 29°46' W 095°06'0 0.3
2017-Oct-15 21:50N 29°46' W 095°06'0 0.2
2017-Oct-15 20:05N 29°47' W 095°06'0 0.8
2017-Oct-15 19:37N 29°46' W 095°06'0 0.1
2017-Oct-15 19:30N 29°46' W 095°06'0 0.2
2017-Oct-15 18:39N 29°46' W 095°06'0 0.3
2017-Oct-15 18:11N 29°46' W 095°06'0 0.1
2017-Oct-15 17:50N 29°46' W 095°06'0 0.1
2017-Oct-15 17:21N 29°46' W 095°06'0 0.2
2017-Oct-15 16:12N 29°46' W 095°06'0 0.2
2017-Oct-15 13:56N 29°46' W 095°06'0 0.1
2017-Oct-15 13:01N 29°46' W 095°06'0 0.1
2017-Oct-15 08:33N 29°46' W 095°06'0 2.0
2017-Oct-15 08:24N 29°46' W 095°06'0 0.1
2017-Oct-15 07:51N 29°46' W 095°06'0 0.1
2017-Oct-15 07:06N 29°46' W 095°06'0 0.2
2017-Oct-15 06:56N 29°46' W 095°06'0 0.2
2017-Oct-15 06:27N 29°46' W 095°06'0 0.2
2017-Oct-15 05:59N 29°46' W 095°06'0 0.4
2017-Oct-15 05:03N 29°47' W 095°06'0 0.1
2017-Oct-15 01:45N 29°46' W 095°06'0 0.2
2017-Oct-15 01:17N 29°46' W 095°06'0 0.2
2017-Oct-14 23:21N 29°47' W 095°06'0 0.5
2017-Oct-14 22:37N 29°46' W 095°06'0 3.6
2017-Oct-14 22:30N 29°47' W 095°06'0 0.1
2017-Oct-14 21:39N 29°47' W 095°06'0 0.5
2017-Oct-14 21:08N 29°47' W 095°06'0 0.6
2017-Oct-14 20:36N 29°46' W 095°06'0 0.2
2017-Oct-14 20:30N 29°46' W 095°06'0 0.1
2017-Oct-14 19:23N 29°46' W 095°06'0 0.0
2017-Oct-14 18:00N 29°46' W 095°06'0 0.0
2017-Oct-14 17:23N 29°46' W 095°06'0 0.4
2017-Oct-14 16:22N 29°47' W 095°06'0 0.1
2017-Oct-14 13:42N 29°47' W 095°06'0 0.6
2017-Oct-14 13:21N 29°47' W 095°06'0 1.1
2017-Oct-14 12:59N 29°46' W 095°06'0 0.2
2017-Oct-14 11:18N 29°47' W 095°06'1 0.3
2017-Oct-14 09:38N 29°47' W 095°06'0 0.1
2017-Oct-14 09:30N 29°47' W 095°06'1 1.7
2017-Oct-14 09:00N 29°46' W 095°06'0 0.0
2017-Oct-14 05:10N 29°46' W 095°06'0 1.4
2017-Oct-14 05:00N 29°46' W 095°06'0 0.2
2017-Oct-14 03:25N 29°46' W 095°06'0 0.2
2017-Oct-14 02:40N 29°47' W 095°06'0 1.2
2017-Oct-14 02:23N 29°46' W 095°06'0 0.0
2017-Oct-13 23:20N 29°46' W 095°06'0 0.4
2017-Oct-13 22:18N 29°47' W 095°06'0 0.0
2017-Oct-13 22:00N 29°47' W 095°06'0 0.2
2017-Oct-13 21:23N 29°47' W 095°06'0 0.3
2017-Oct-13 20:21N 29°46' W 095°06'0 0.1
2017-Oct-13 19:47N 29°46' W 095°06'0 0.1
2017-Oct-13 19:26N 29°46' W 095°06'0 0.6
2017-Oct-13 18:51N 29°47' W 095°06'0 0.0
2017-Oct-13 13:58N 29°47' W 095°06'0 0.0
2017-Oct-13 08:39N 29°46' W 095°06'0 0.7
2017-Oct-13 08:30N 29°46' W 095°06'0 0.1
2017-Oct-13 07:57N 29°46' W 095°06'1 0.3
2017-Oct-13 05:50N 29°47' W 095°06'1 1.2
2017-Oct-13 05:24N 29°46' W 095°06'0 0.1
2017-Oct-13 04:26N 29°46' W 095°06'0 0.1
2017-Oct-13 03:31N 29°46' W 095°06'0 0.0
2017-Oct-13 03:19N 29°46' W 095°06'0 0.1
2017-Oct-13 02:56N 29°46' W 095°06'0 0.5
2017-Oct-13 02:27N 29°47' W 095°06'0 0.1
2017-Oct-12 21:17N 29°46' W 095°06'0 1.1
2017-Oct-12 20:59N 29°47' W 095°06'0 0.3
2017-Oct-12 19:42N 29°46' W 095°06'0 0.1
2017-Oct-12 13:43N 29°47' W 095°06'0 0.1
2017-Oct-12 11:43N 29°47' W 095°06'0 0.4
2017-Oct-12 11:09N 29°47' W 095°06'0 0.1
2017-Oct-12 07:55N 29°46' W 095°06'0 0.1
2017-Oct-12 06:40N 29°46' W 095°06'0 1.0
2017-Oct-12 06:27N 29°46' W 095°06'0 0.1
2017-Oct-12 06:00N 29°46' W 095°06'0 0.3
2017-Oct-12 04:37N 29°47' W 095°06'0 0.1
2017-Oct-12 04:28N 29°47' W 095°06'1 1.3
2017-Oct-12 04:00N 29°46' W 095°06'0 0.0
2017-Oct-12 03:23N 29°46' W 095°06'1 1.2
2017-Oct-12 02:55N 29°47' W 095°06'0 0.8
2017-Oct-12 02:18N 29°46' W 095°06'0 0.0
2017-Oct-12 00:55N 29°46' W 095°06'0 0.2
2017-Oct-12 00:21N 29°46' W 095°06'0 0.3
2017-Oct-12 00:00N 29°46' W 095°06'2 3.8
2017-Oct-11 23:29N 29°44' W 095°07'3 5.5
2017-Oct-11 22:59N 29°45' W 095°10'3 5.4
2017-Oct-11 22:27N 29°44' W 095°07'2 2.8
2017-Oct-11 21:42N 29°47' W 095°06'1 1.7
2017-Oct-11 21:23N 29°47' W 095°06'1 0.4
2017-Oct-11 20:06N 29°46' W 095°06'0 0.0
2017-Oct-11 19:13N 29°46' W 095°06'0 0.1
2017-Oct-11 17:37N 29°47' W 095°06'0 0.0
2017-Oct-10 22:40N 29°47' W 095°06'0 0.1
2017-Oct-10 22:01N 29°46' W 095°06'0 5.7
2017-Oct-10 22:00N 29°46' W 095°06'0 0.2
2017-Oct-10 21:30N 29°46' W 095°06'0 0.5
2017-Oct-10 21:00N 29°47' W 095°06'0 0.4
2017-Oct-10 20:25N 29°46' W 095°06'0 0.2
2017-Oct-10 19:31N 29°46' W 095°06'0 0.3
2017-Oct-10 18:45N 29°47' W 095°06'0 0.6
2017-Oct-10 18:14N 29°46' W 095°06'0 0.0
2017-Oct-10 17:46N 29°46' W 095°06'0 0.0
2017-Oct-10 16:24N 29°46' W 095°06'0 0.0
2017-Oct-10 10:01N 29°46' W 095°06'0 0.9
2017-Oct-10 10:00N 29°46' W 095°06'0 0.0
2017-Oct-10 05:26N 29°46' W 095°06'0 0.5
2017-Oct-10 05:00N 29°47' W 095°06'0 0.0
2017-Oct-10 01:53N 29°47' W 095°06'0 0.1
2017-Oct-09 23:44N 29°46' W 095°06'0 0.1
2017-Oct-09 23:27N 29°46' W 095°06'  

Dump ship's entire track history